Terminal Aerodrome Forecast
Issued by NWS

Home | Current Version | Previous Version | Text Only | Print | Product List | Glossary On
Versions: 1 2 3 4 5 6 7 8 9 10 11 12 13 14 15 16
000
FTUS44 KMAF 231720
TAFHOB
TAF
KHOB 231720Z 2318/2418 23029G39KT P6SM FEW250
      TEMPO 2319/2323 4SM BLDU
     FM240100 26012KT P6SM SKC
     FM241300 28008KT P6SM FEW250=

USA.gov is the U.S. government's official web portal to all federal, state and local government web resources and services.